sensor_id;sensor_type;location;lat;lon;timestamp;temperature;humidity
25640;DHT22;13497;48.322;16.204;2022-09-13T00:00:48;12.70;99.90
25640;DHT22;13497;48.322;16.204;2022-09-13T00:03:14;12.70;99.90
25640;DHT22;13497;48.322;16.204;2022-09-13T00:05:40;12.80;99.90
25640;DHT22;13497;48.322;16.204;2022-09-13T00:08:06;12.80;99.90
25640;DHT22;13497;48.322;16.204;2022-09-13T00:10:40;12.80;99.90
25640;DHT22;13497;48.322;16.204;2022-09-13T00:13:07;12.80;99.90
25640;DHT22;13497;48.322;16.204;2022-09-13T00:15:34;12.80;99.90
25640;DHT22;13497;48.322;16.204;2022-09-13T00:17:59;12.80;99.90
25640;DHT22;13497;48.322;16.204;2022-09-13T00:20:25;12.80;99.90
25640;DHT22;13497;48.322;16.204;2022-09-13T00:22:51;12.70;99.90
25640;DHT22;13497;48.322;16.204;2022-09-13T00:25:17;12.60;99.90
25640;DHT22;13497;48.322;16.204;2022-09-13T00:27:43;12.60;99.90
25640;DHT22;13497;48.322;16.204;2022-09-13T00:30:10;12.50;99.90
25640;DHT22;13497;48.322;16.204;2022-09-13T00:32:37;12.50;99.90
25640;DHT22;13497;48.322;16.204;2022-09-13T00:35:04;12.60;99.90
25640;DHT22;13497;48.322;16.204;2022-09-13T00:37:31;12.60;99.90
25640;DHT22;13497;48.322;16.204;2022-09-13T00:39:58;12.70;99.90
25640;DHT22;13497;48.322;16.204;2022-09-13T00:42:31;12.70;99.90
25640;DHT22;13497;48.322;16.204;2022-09-13T00:47:48;12.60;99.90
25640;DHT22;13497;48.322;16.204;2022-09-13T00:50:32;12.60;99.90
25640;DHT22;13497;48.322;16.204;2022-09-13T00:53:13;12.60;99.90
25640;DHT22;13497;48.322;16.204;2022-09-13T00:55:48;12.60;99.90
25640;DHT22;13497;48.322;16.204;2022-09-13T01:00:56;12.60;99.90
25640;DHT22;13497;48.322;16.204;2022-09-13T01:03:25;12.60;99.90
25640;DHT22;13497;48.322;16.204;2022-09-13T01:05:59;12.60;99.90
25640;DHT22;13497;48.322;16.204;2022-09-13T01:08:27;12.60;99.90
25640;DHT22;13497;48.322;16.204;2022-09-13T01:10:58;12.50;99.90
25640;DHT22;13497;48.322;16.204;2022-09-13T01:13:30;12.50;99.90
25640;DHT22;13497;48.322;16.204;2022-09-13T01:15:57;12.50;99.90
25640;DHT22;13497;48.322;16.204;2022-09-13T01:18:23;12.50;99.90
25640;DHT22;13497;48.322;16.204;2022-09-13T01:23:50;12.50;99.90
25640;DHT22;13497;48.322;16.204;2022-09-13T01:32:07;12.50;99.90
25640;DHT22;13497;48.322;16.204;2022-09-13T01:34:39;12.50;99.90
25640;DHT22;13497;48.322;16.204;2022-09-13T01:42:43;12.60;99.90
25640;DHT22;13497;48.322;16.204;2022-09-13T01:50:39;12.50;99.90
25640;DHT22;13497;48.322;16.204;2022-09-13T01:53:29;12.40;99.90
25640;DHT22;13497;48.322;16.204;2022-09-13T01:56:44;12.40;99.90
25640;DHT22;13497;48.322;16.204;2022-09-13T01:58:55;12.30;99.90
25640;DHT22;13497;48.322;16.204;2022-09-13T02:01:35;12.30;99.90
25640;DHT22;13497;48.322;16.204;2022-09-13T02:04:07;12.30;99.90
25640;DHT22;13497;48.322;16.204;2022-09-13T02:06:40;12.30;99.90
25640;DHT22;13497;48.322;16.204;2022-09-13T02:09:14;12.30;99.90
25640;DHT22;13497;48.322;16.204;2022-09-13T02:11:42;12.40;99.90
25640;DHT22;13497;48.322;16.204;2022-09-13T02:14:15;12.40;99.90
25640;DHT22;13497;48.322;16.204;2022-09-13T02:17:08;12.40;99.90
25640;DHT22;13497;48.322;16.204;2022-09-13T02:19:46;12.40;99.90
25640;DHT22;13497;48.322;16.204;2022-09-13T02:22:15;12.30;99.90
25640;DHT22;13497;48.322;16.204;2022-09-13T02:24:46;12.30;99.90
25640;DHT22;13497;48.322;16.204;2022-09-13T02:27:17;12.30;99.90
25640;DHT22;13497;48.322;16.204;2022-09-13T02:29:45;12.30;99.90
25640;DHT22;13497;48.322;16.204;2022-09-13T02:32:21;12.30;99.90
25640;DHT22;13497;48.322;16.204;2022-09-13T02:34:59;12.30;99.90
25640;DHT22;13497;48.322;16.204;2022-09-13T02:37:29;12.30;99.90
25640;DHT22;13497;48.322;16.204;2022-09-13T02:40:03;12.20;99.90
25640;DHT22;13497;48.322;16.204;2022-09-13T02:42:40;12.20;99.90
25640;DHT22;13497;48.322;16.204;2022-09-13T02:45:09;12.20;99.90
25640;DHT22;13497;48.322;16.204;2022-09-13T02:47:58;12.10;99.90
25640;DHT22;13497;48.322;16.204;2022-09-13T02:53:21;12.00;99.90
25640;DHT22;13497;48.322;16.204;2022-09-13T02:58:43;12.00;99.90
25640;DHT22;13497;48.322;16.204;2022-09-13T03:01:10;11.90;99.90
25640;DHT22;13497;48.322;16.204;2022-09-13T03:03:36;11.90;99.90
25640;DHT22;13497;48.322;16.204;2022-09-13T03:06:02;11.90;99.90
25640;DHT22;13497;48.322;16.204;2022-09-13T03:08:28;11.80;99.90
25640;DHT22;13497;48.322;16.204;2022-09-13T03:14:01;11.80;99.90
25640;DHT22;13497;48.322;16.204;2022-09-13T03:16:59;11.80;99.90
25640;DHT22;13497;48.322;16.204;2022-09-13T03:19:55;11.80;99.90
25640;DHT22;13497;48.322;16.204;2022-09-13T03:28:21;12.00;99.90
25640;DHT22;13497;48.322;16.204;2022-09-13T03:31:05;12.00;99.90
25640;DHT22;13497;48.322;16.204;2022-09-13T03:33:55;12.00;99.90
25640;DHT22;13497;48.322;16.204;2022-09-13T03:36:52;11.90;99.90
25640;DHT22;13497;48.322;16.204;2022-09-13T03:42:25;11.80;99.90
25640;DHT22;13497;48.322;16.204;2022-09-13T03:44:54;11.80;99.90
25640;DHT22;13497;48.322;16.204;2022-09-13T03:47:24;11.80;99.90
25640;DHT22;13497;48.322;16.204;2022-09-13T03:49:51;11.80;99.90
25640;DHT22;13497;48.322;16.204;2022-09-13T03:52:18;11.80;99.90
25640;DHT22;13497;48.322;16.204;2022-09-13T03:54:44;11.90;99.90
25640;DHT22;13497;48.322;16.204;2022-09-13T03:57:15;11.90;99.90
25640;DHT22;13497;48.322;16.204;2022-09-13T03:59:52;11.90;99.90
25640;DHT22;13497;48.322;16.204;2022-09-13T04:02:19;11.80;99.90
25640;DHT22;13497;48.322;16.204;2022-09-13T04:04:45;11.90;99.90
25640;DHT22;13497;48.322;16.204;2022-09-13T04:07:15;12.00;99.90
25640;DHT22;13497;48.322;16.204;2022-09-13T04:09:41;12.00;99.90
25640;DHT22;13497;48.322;16.204;2022-09-13T04:12:07;12.10;99.90
25640;DHT22;13497;48.322;16.204;2022-09-13T04:14:35;12.20;99.90
25640;DHT22;13497;48.322;16.204;2022-09-13T04:17:01;12.10;99.90
25640;DHT22;13497;48.322;16.204;2022-09-13T04:19:27;12.10;99.90
25640;DHT22;13497;48.322;16.204;2022-09-13T04:21:53;12.20;99.90
25640;DHT22;13497;48.322;16.204;2022-09-13T04:24:24;12.10;99.90
25640;DHT22;13497;48.322;16.204;2022-09-13T04:26:50;12.20;99.90
25640;DHT22;13497;48.322;16.204;2022-09-13T04:29:18;12.20;99.90
25640;DHT22;13497;48.322;16.204;2022-09-13T04:31:48;12.20;99.90
25640;DHT22;13497;48.322;16.204;2022-09-13T04:34:14;12.30;99.90
25640;DHT22;13497;48.322;16.204;2022-09-13T04:36:40;12.30;99.90
25640;DHT22;13497;48.322;16.204;2022-09-13T04:39:06;12.30;99.90
25640;DHT22;13497;48.322;16.204;2022-09-13T04:41:32;12.30;99.90
25640;DHT22;13497;48.322;16.204;2022-09-13T04:43:59;12.20;99.90
25640;DHT22;13497;48.322;16.204;2022-09-13T04:46:28;12.20;99.90
25640;DHT22;13497;48.322;16.204;2022-09-13T04:48:54;12.00;99.90
25640;DHT22;13497;48.322;16.204;2022-09-13T04:51:19;12.00;99.90
25640;DHT22;13497;48.322;16.204;2022-09-13T04:53:51;12.00;99.90
25640;DHT22;13497;48.322;16.204;2022-09-13T04:56:23;12.00;99.90
25640;DHT22;13497;48.322;16.204;2022-09-13T04:58:52;12.10;99.90
25640;DHT22;13497;48.322;16.204;2022-09-13T05:01:19;12.10;99.90
25640;DHT22;13497;48.322;16.204;2022-09-13T05:03:45;12.10;99.90
25640;DHT22;13497;48.322;16.204;2022-09-13T05:06:13;12.10;99.90
25640;DHT22;13497;48.322;16.204;2022-09-13T05:08:39;12.10;99.90
25640;DHT22;13497;48.322;16.204;2022-09-13T05:11:06;12.10;99.90
25640;DHT22;13497;48.322;16.204;2022-09-13T05:13:32;12.20;99.90
25640;DHT22;13497;48.322;16.204;2022-09-13T05:16:04;12.30;99.90
25640;DHT22;13497;48.322;16.204;2022-09-13T05:18:32;12.30;99.90
25640;DHT22;13497;48.322;16.204;2022-09-13T05:21:02;12.40;99.90
25640;DHT22;13497;48.322;16.204;2022-09-13T05:23:29;12.60;99.90
25640;DHT22;13497;48.322;16.204;2022-09-13T05:26:03;12.60;99.90
25640;DHT22;13497;48.322;16.204;2022-09-13T05:28:33;12.70;99.90
25640;DHT22;13497;48.322;16.204;2022-09-13T05:33:26;12.70;99.90
25640;DHT22;13497;48.322;16.204;2022-09-13T05:35:58;12.80;99.90
25640;DHT22;13497;48.322;16.204;2022-09-13T05:38:24;13.00;99.90
25640;DHT22;13497;48.322;16.204;2022-09-13T05:40:55;13.00;99.90
25640;DHT22;13497;48.322;16.204;2022-09-13T05:43:24;13.20;99.90
25640;DHT22;13497;48.322;16.204;2022-09-13T05:45:50;13.30;99.90
25640;DHT22;13497;48.322;16.204;2022-09-13T05:48:16;13.40;99.90
25640;DHT22;13497;48.322;16.204;2022-09-13T05:50:42;13.40;99.90
25640;DHT22;13497;48.322;16.204;2022-09-13T05:53:07;13.40;99.90
25640;DHT22;13497;48.322;16.204;2022-09-13T05:55:33;13.40;99.90
25640;DHT22;13497;48.322;16.204;2022-09-13T05:58:03;13.40;99.90
25640;DHT22;13497;48.322;16.204;2022-09-13T06:00:28;13.40;99.90
25640;DHT22;13497;48.322;16.204;2022-09-13T06:02:56;13.50;99.90
25640;DHT22;13497;48.322;16.204;2022-09-13T06:05:21;13.40;99.90
25640;DHT22;13497;48.322;16.204;2022-09-13T06:07:47;13.50;99.90
25640;DHT22;13497;48.322;16.204;2022-09-13T06:10:13;13.40;99.90
25640;DHT22;13497;48.322;16.204;2022-09-13T06:12:39;13.40;99.90
25640;DHT22;13497;48.322;16.204;2022-09-13T06:15:05;13.50;99.90
25640;DHT22;13497;48.322;16.204;2022-09-13T06:17:31;13.50;99.90
25640;DHT22;13497;48.322;16.204;2022-09-13T06:19:56;13.60;99.90
25640;DHT22;13497;48.322;16.204;2022-09-13T06:22:22;13.60;99.90
25640;DHT22;13497;48.322;16.204;2022-09-13T06:24:48;13.70;99.90
25640;DHT22;13497;48.322;16.204;2022-09-13T06:27:13;13.80;99.90
25640;DHT22;13497;48.322;16.204;2022-09-13T06:29:39;14.00;99.90
25640;DHT22;13497;48.322;16.204;2022-09-13T06:32:05;14.10;99.90
25640;DHT22;13497;48.322;16.204;2022-09-13T06:34:30;14.30;99.90
25640;DHT22;13497;48.322;16.204;2022-09-13T06:36:56;14.40;99.90
25640;DHT22;13497;48.322;16.204;2022-09-13T06:39:22;14.40;99.90
25640;DHT22;13497;48.322;16.204;2022-09-13T06:41:48;14.50;99.90
25640;DHT22;13497;48.322;16.204;2022-09-13T06:44:13;14.60;99.90
25640;DHT22;13497;48.322;16.204;2022-09-13T06:46:39;14.60;99.90
25640;DHT22;13497;48.322;16.204;2022-09-13T06:49:08;14.60;99.90
25640;DHT22;13497;48.322;16.204;2022-09-13T06:51:34;14.70;99.90
25640;DHT22;13497;48.322;16.204;2022-09-13T06:54:00;14.80;99.90
25640;DHT22;13497;48.322;16.204;2022-09-13T06:56:30;14.90;99.90
25640;DHT22;13497;48.322;16.204;2022-09-13T06:58:58;15.00;99.90
25640;DHT22;13497;48.322;16.204;2022-09-13T07:01:29;15.00;99.90
25640;DHT22;13497;48.322;16.204;2022-09-13T07:04:06;15.20;99.90
25640;DHT22;13497;48.322;16.204;2022-09-13T07:06:35;15.30;99.90
25640;DHT22;13497;48.322;16.204;2022-09-13T07:09:02;15.40;99.90
25640;DHT22;13497;48.322;16.204;2022-09-13T07:11:31;15.30;99.90
25640;DHT22;13497;48.322;16.204;2022-09-13T07:13:58;15.40;99.90
25640;DHT22;13497;48.322;16.204;2022-09-13T07:16:26;15.50;99.90
25640;DHT22;13497;48.322;16.204;2022-09-13T07:19:15;15.60;99.90
25640;DHT22;13497;48.322;16.204;2022-09-13T07:21:39;15.60;99.90
25640;DHT22;13497;48.322;16.204;2022-09-13T07:24:07;15.80;99.90
25640;DHT22;13497;48.322;16.204;2022-09-13T07:26:33;15.70;99.90
25640;DHT22;13497;48.322;16.204;2022-09-13T07:29:02;15.80;99.90
25640;DHT22;13497;48.322;16.204;2022-09-13T07:31:37;15.90;99.90
25640;DHT22;13497;48.322;16.204;2022-09-13T07:34:07;16.00;99.90
25640;DHT22;13497;48.322;16.204;2022-09-13T07:36:34;16.10;99.90
25640;DHT22;13497;48.322;16.204;2022-09-13T07:39:01;16.00;99.90
25640;DHT22;13497;48.322;16.204;2022-09-13T07:41:29;15.80;99.90
25640;DHT22;13497;48.322;16.204;2022-09-13T07:43:56;15.90;99.90
25640;DHT22;13497;48.322;16.204;2022-09-13T07:46:24;15.90;99.90
25640;DHT22;13497;48.322;16.204;2022-09-13T07:48:55;16.10;99.90
25640;DHT22;13497;48.322;16.204;2022-09-13T07:51:23;16.20;99.90
25640;DHT22;13497;48.322;16.204;2022-09-13T07:53:51;16.20;99.90
25640;DHT22;13497;48.322;16.204;2022-09-13T07:56:22;16.30;99.90
25640;DHT22;13497;48.322;16.204;2022-09-13T07:58:49;16.40;99.90
25640;DHT22;13497;48.322;16.204;2022-09-13T08:03:58;16.50;99.90
25640;DHT22;13497;48.322;16.204;2022-09-13T08:06:26;16.50;99.90
25640;DHT22;13497;48.322;16.204;2022-09-13T08:08:52;16.70;99.90
25640;DHT22;13497;48.322;16.204;2022-09-13T08:13:52;17.00;99.90
25640;DHT22;13497;48.322;16.204;2022-09-13T08:16:19;17.10;99.90
25640;DHT22;13497;48.322;16.204;2022-09-13T08:18:47;17.10;99.90
25640;DHT22;13497;48.322;16.204;2022-09-13T08:21:13;17.30;99.90
25640;DHT22;13497;48.322;16.204;2022-09-13T08:23:41;17.40;99.90
25640;DHT22;13497;48.322;16.204;2022-09-13T08:26:08;17.40;99.90
25640;DHT22;13497;48.322;16.204;2022-09-13T08:28:35;17.40;99.90
25640;DHT22;13497;48.322;16.204;2022-09-13T08:31:16;17.60;99.90
25640;DHT22;13497;48.322;16.204;2022-09-13T08:33:45;17.60;99.90
25640;DHT22;13497;48.322;16.204;2022-09-13T08:36:11;17.40;99.90
25640;DHT22;13497;48.322;16.204;2022-09-13T08:38:36;17.60;99.90
25640;DHT22;13497;48.322;16.204;2022-09-13T08:41:15;17.80;99.90
25640;DHT22;13497;48.322;16.204;2022-09-13T08:46:48;17.50;99.90
25640;DHT22;13497;48.322;16.204;2022-09-13T08:49:35;17.30;99.90
25640;DHT22;13497;48.322;16.204;2022-09-13T08:54:50;16.90;99.90
25640;DHT22;13497;48.322;16.204;2022-09-13T08:57:35;16.90;99.90
25640;DHT22;13497;48.322;16.204;2022-09-13T09:00:10;16.80;99.90
25640;DHT22;13497;48.322;16.204;2022-09-13T09:03:01;17.00;99.90
25640;DHT22;13497;48.322;16.204;2022-09-13T09:05:40;17.20;99.90
25640;DHT22;13497;48.322;16.204;2022-09-13T09:08:30;17.30;99.90
25640;DHT22;13497;48.322;16.204;2022-09-13T09:11:02;17.30;99.90
25640;DHT22;13497;48.322;16.204;2022-09-13T09:14:34;17.30;99.90
25640;DHT22;13497;48.322;16.204;2022-09-13T09:16:45;17.30;99.90
25640;DHT22;13497;48.322;16.204;2022-09-13T09:19:35;17.50;99.90
25640;DHT22;13497;48.322;16.204;2022-09-13T09:22:04;17.70;99.90
25640;DHT22;13497;48.322;16.204;2022-09-13T09:24:36;17.80;99.90
25640;DHT22;13497;48.322;16.204;2022-09-13T09:27:13;17.80;99.90
25640;DHT22;13497;48.322;16.204;2022-09-13T09:29:43;17.90;99.90
25640;DHT22;13497;48.322;16.204;2022-09-13T09:37:36;18.40;99.90
25640;DHT22;13497;48.322;16.204;2022-09-13T09:40:04;18.50;99.90
25640;DHT22;13497;48.322;16.204;2022-09-13T09:42:44;18.70;99.90
25640;DHT22;13497;48.322;16.204;2022-09-13T09:47:52;19.30;99.90
25640;DHT22;13497;48.322;16.204;2022-09-13T09:50:32;19.40;99.90
25640;DHT22;13497;48.322;16.204;2022-09-13T09:53:07;19.50;99.90
25640;DHT22;13497;48.322;16.204;2022-09-13T09:58:08;19.70;99.90
25640;DHT22;13497;48.322;16.204;2022-09-13T10:00:37;19.80;99.90
25640;DHT22;13497;48.322;16.204;2022-09-13T10:03:19;19.80;99.90
25640;DHT22;13497;48.322;16.204;2022-09-13T10:05:47;20.00;99.90
25640;DHT22;13497;48.322;16.204;2022-09-13T10:08:40;20.30;99.90
25640;DHT22;13497;48.322;16.204;2022-09-13T10:11:07;20.60;99.90
25640;DHT22;13497;48.322;16.204;2022-09-13T10:13:33;20.60;99.90
25640;DHT22;13497;48.322;16.204;2022-09-13T10:18:31;20.70;99.90
25640;DHT22;13497;48.322;16.204;2022-09-13T10:21:23;20.70;99.90
25640;DHT22;13497;48.322;16.204;2022-09-13T10:23:49;20.90;99.90
25640;DHT22;13497;48.322;16.204;2022-09-13T10:26:21;20.70;99.90
25640;DHT22;13497;48.322;16.204;2022-09-13T10:28:58;20.80;99.90
25640;DHT22;13497;48.322;16.204;2022-09-13T10:31:37;20.90;99.90
25640;DHT22;13497;48.322;16.204;2022-09-13T10:34:16;20.90;99.90
25640;DHT22;13497;48.322;16.204;2022-09-13T10:37:00;21.00;99.90
25640;DHT22;13497;48.322;16.204;2022-09-13T10:39:51;21.00;99.90
25640;DHT22;13497;48.322;16.204;2022-09-13T10:42:21;20.60;99.90
25640;DHT22;13497;48.322;16.204;2022-09-13T10:45:07;20.50;99.90
25640;DHT22;13497;48.322;16.204;2022-09-13T10:47:47;20.50;99.90
25640;DHT22;13497;48.322;16.204;2022-09-13T10:50:29;20.70;99.90
25640;DHT22;13497;48.322;16.204;2022-09-13T10:53:00;20.70;99.90
25640;DHT22;13497;48.322;16.204;2022-09-13T10:55:37;20.90;99.90
25640;DHT22;13497;48.322;16.204;2022-09-13T11:01:11;21.20;99.90
25640;DHT22;13497;48.322;16.204;2022-09-13T11:04:28;21.30;99.90
25640;DHT22;13497;48.322;16.204;2022-09-13T11:06:44;21.10;99.90
25640;DHT22;13497;48.322;16.204;2022-09-13T11:09:24;20.90;99.90
25640;DHT22;13497;48.322;16.204;2022-09-13T11:14:57;21.10;99.90
25640;DHT22;13497;48.322;16.204;2022-09-13T11:17:54;21.30;99.90
25640;DHT22;13497;48.322;16.204;2022-09-13T11:35:46;22.30;99.90
25640;DHT22;13497;48.322;16.204;2022-09-13T11:38:39;22.30;99.60
25640;DHT22;13497;48.322;16.204;2022-09-13T11:41:33;22.20;99.40
25640;DHT22;13497;48.322;16.204;2022-09-13T11:44:24;22.20;99.30
25640;DHT22;13497;48.322;16.204;2022-09-13T11:57:26;22.30;98.30
25640;DHT22;13497;48.322;16.204;2022-09-13T11:59:58;22.50;98.20
25640;DHT22;13497;48.322;16.204;2022-09-13T12:02:36;22.60;97.90
25640;DHT22;13497;48.322;16.204;2022-09-13T12:05:16;22.60;98.40
25640;DHT22;13497;48.322;16.204;2022-09-13T12:12:52;22.80;98.20
25640;DHT22;13497;48.322;16.204;2022-09-13T12:15:40;22.80;98.00
25640;DHT22;13497;48.322;16.204;2022-09-13T12:18:18;22.80;98.00
25640;DHT22;13497;48.322;16.204;2022-09-13T12:21:03;22.70;96.70
25640;DHT22;13497;48.322;16.204;2022-09-13T12:29:04;22.70;96.00
25640;DHT22;13497;48.322;16.204;2022-09-13T12:31:31;22.90;95.40
25640;DHT22;13497;48.322;16.204;2022-09-13T12:33:58;23.10;95.70
25640;DHT22;13497;48.322;16.204;2022-09-13T12:44:46;23.20;93.40
25640;DHT22;13497;48.322;16.204;2022-09-13T12:50:42;23.50;93.80
25640;DHT22;13497;48.322;16.204;2022-09-13T12:56:15;23.40;93.70
25640;DHT22;13497;48.322;16.204;2022-09-13T13:01:23;23.60;93.70
25640;DHT22;13497;48.322;16.204;2022-09-13T13:03:56;23.60;94.00
25640;DHT22;13497;48.322;16.204;2022-09-13T13:06:37;23.70;93.50
25640;DHT22;13497;48.322;16.204;2022-09-13T13:09:21;23.70;93.60
25640;DHT22;13497;48.322;16.204;2022-09-13T13:11:48;23.80;93.30
25640;DHT22;13497;48.322;16.204;2022-09-13T13:14:44;24.00;93.10
25640;DHT22;13497;48.322;16.204;2022-09-13T13:23:18;24.90;92.80
25640;DHT22;13497;48.322;16.204;2022-09-13T13:36:28;25.10;91.60
25640;DHT22;13497;48.322;16.204;2022-09-13T13:38:58;25.10;92.10
25640;DHT22;13497;48.322;16.204;2022-09-13T13:46:48;25.00;92.00
25640;DHT22;13497;48.322;16.204;2022-09-13T13:57:36;24.80;92.30
25640;DHT22;13497;48.322;16.204;2022-09-13T14:00:14;24.80;92.80
25640;DHT22;13497;48.322;16.204;2022-09-13T14:05:28;24.80;92.60
25640;DHT22;13497;48.322;16.204;2022-09-13T14:10:53;25.00;91.70
25640;DHT22;13497;48.322;16.204;2022-09-13T14:13:24;25.20;91.60
25640;DHT22;13497;48.322;16.204;2022-09-13T14:16:12;25.20;91.00
25640;DHT22;13497;48.322;16.204;2022-09-13T14:21:31;25.10;91.60
25640;DHT22;13497;48.322;16.204;2022-09-13T14:24:18;24.90;91.30
25640;DHT22;13497;48.322;16.204;2022-09-13T14:26:46;24.70;91.90
25640;DHT22;13497;48.322;16.204;2022-09-13T14:29:18;24.60;94.00
25640;DHT22;13497;48.322;16.204;2022-09-13T14:31:45;24.50;95.80
25640;DHT22;13497;48.322;16.204;2022-09-13T14:36:56;24.20;96.80
25640;DHT22;13497;48.322;16.204;2022-09-13T14:39:23;24.10;97.40
25640;DHT22;13497;48.322;16.204;2022-09-13T14:42:13;24.00;98.20
25640;DHT22;13497;48.322;16.204;2022-09-13T14:44:46;23.80;98.70
25640;DHT22;13497;48.322;16.204;2022-09-13T14:49:47;23.60;99.40
25640;DHT22;13497;48.322;16.204;2022-09-13T14:52:27;23.60;99.40
25640;DHT22;13497;48.322;16.204;2022-09-13T14:54:56;23.30;99.60
25640;DHT22;13497;48.322;16.204;2022-09-13T14:57:26;23.30;99.70
25640;DHT22;13497;48.322;16.204;2022-09-13T14:59:57;23.20;99.90
25640;DHT22;13497;48.322;16.204;2022-09-13T15:02:26;22.90;99.90
25640;DHT22;13497;48.322;16.204;2022-09-13T15:04:55;22.70;99.90
25640;DHT22;13497;48.322;16.204;2022-09-13T15:07:32;22.60;99.90
25640;DHT22;13497;48.322;16.204;2022-09-13T15:17:55;21.60;99.90
25640;DHT22;13497;48.322;16.204;2022-09-13T15:20:23;21.50;99.90
25640;DHT22;13497;48.322;16.204;2022-09-13T15:22:49;21.50;99.90
25640;DHT22;13497;48.322;16.204;2022-09-13T15:25:20;21.30;99.90
25640;DHT22;13497;48.322;16.204;2022-09-13T15:27:48;21.30;99.90
25640;DHT22;13497;48.322;16.204;2022-09-13T15:30:28;21.20;99.90
25640;DHT22;13497;48.322;16.204;2022-09-13T15:35:46;21.30;99.90
25640;DHT22;13497;48.322;16.204;2022-09-13T15:38:29;21.30;99.90
25640;DHT22;13497;48.322;16.204;2022-09-13T15:41:11;21.30;99.90
25640;DHT22;13497;48.322;16.204;2022-09-13T15:43:37;21.20;99.90
25640;DHT22;13497;48.322;16.204;2022-09-13T15:46:03;21.20;99.90
25640;DHT22;13497;48.322;16.204;2022-09-13T15:48:33;21.10;99.90
25640;DHT22;13497;48.322;16.204;2022-09-13T15:51:11;20.90;99.90
25640;DHT22;13497;48.322;16.204;2022-09-13T15:53:42;20.90;99.90
25640;DHT22;13497;48.322;16.204;2022-09-13T15:56:12;20.80;99.90
25640;DHT22;13497;48.322;16.204;2022-09-13T15:58:38;20.80;99.90
25640;DHT22;13497;48.322;16.204;2022-09-13T16:01:04;20.70;99.90
25640;DHT22;13497;48.322;16.204;2022-09-13T16:03:31;20.60;99.90
25640;DHT22;13497;48.322;16.204;2022-09-13T16:05:57;20.60;99.90
25640;DHT22;13497;48.322;16.204;2022-09-13T16:08:23;20.50;99.90
25640;DHT22;13497;48.322;16.204;2022-09-13T16:10:49;20.40;99.90
25640;DHT22;13497;48.322;16.204;2022-09-13T16:13:15;20.30;99.90
25640;DHT22;13497;48.322;16.204;2022-09-13T16:15:41;20.20;99.90
25640;DHT22;13497;48.322;16.204;2022-09-13T16:18:07;20.00;99.90
25640;DHT22;13497;48.322;16.204;2022-09-13T16:20:33;20.00;99.90
25640;DHT22;13497;48.322;16.204;2022-09-13T16:22:58;19.90;99.90
25640;DHT22;13497;48.322;16.204;2022-09-13T16:25:24;19.90;99.90
25640;DHT22;13497;48.322;16.204;2022-09-13T16:27:50;19.90;99.90
25640;DHT22;13497;48.322;16.204;2022-09-13T16:30:19;19.90;99.90
25640;DHT22;13497;48.322;16.204;2022-09-13T16:32:46;19.90;99.90
25640;DHT22;13497;48.322;16.204;2022-09-13T16:35:12;19.90;99.90
25640;DHT22;13497;48.322;16.204;2022-09-13T16:37:39;19.90;99.90
25640;DHT22;13497;48.322;16.204;2022-09-13T16:40:05;19.90;99.90
25640;DHT22;13497;48.322;16.204;2022-09-13T16:42:32;19.80;99.90
25640;DHT22;13497;48.322;16.204;2022-09-13T16:44:58;19.80;99.90
25640;DHT22;13497;48.322;16.204;2022-09-13T16:47:25;19.80;99.90
25640;DHT22;13497;48.322;16.204;2022-09-13T16:49:51;19.80;99.90
25640;DHT22;13497;48.322;16.204;2022-09-13T16:52:17;19.80;99.90
25640;DHT22;13497;48.322;16.204;2022-09-13T16:54:42;19.70;99.90
25640;DHT22;13497;48.322;16.204;2022-09-13T16:57:11;19.70;99.90
25640;DHT22;13497;48.322;16.204;2022-09-13T16:59:38;19.70;99.90
25640;DHT22;13497;48.322;16.204;2022-09-13T17:02:09;19.70;99.90
25640;DHT22;13497;48.322;16.204;2022-09-13T17:04:35;19.80;99.90
25640;DHT22;13497;48.322;16.204;2022-09-13T17:07:01;19.80;99.90
25640;DHT22;13497;48.322;16.204;2022-09-13T17:09:29;19.80;99.90
25640;DHT22;13497;48.322;16.204;2022-09-13T17:11:55;19.80;99.90
25640;DHT22;13497;48.322;16.204;2022-09-13T17:14:21;19.90;99.90
25640;DHT22;13497;48.322;16.204;2022-09-13T17:16:52;19.90;99.90
25640;DHT22;13497;48.322;16.204;2022-09-13T17:19:24;19.90;99.90
25640;DHT22;13497;48.322;16.204;2022-09-13T17:21:52;19.90;99.90
25640;DHT22;13497;48.322;16.204;2022-09-13T17:24:20;20.00;99.90
25640;DHT22;13497;48.322;16.204;2022-09-13T17:26:45;20.00;99.90
25640;DHT22;13497;48.322;16.204;2022-09-13T17:29:12;20.00;99.90
25640;DHT22;13497;48.322;16.204;2022-09-13T17:31:42;20.00;99.90
25640;DHT22;13497;48.322;16.204;2022-09-13T17:34:08;19.90;99.90
25640;DHT22;13497;48.322;16.204;2022-09-13T17:36:35;19.80;99.90
25640;DHT22;13497;48.322;16.204;2022-09-13T17:39:01;19.80;99.90
25640;DHT22;13497;48.322;16.204;2022-09-13T17:41:26;19.70;99.90
25640;DHT22;13497;48.322;16.204;2022-09-13T17:43:52;19.70;99.90
25640;DHT22;13497;48.322;16.204;2022-09-13T17:46:20;19.70;99.90
25640;DHT22;13497;48.322;16.204;2022-09-13T17:48:47;19.60;99.90
25640;DHT22;13497;48.322;16.204;2022-09-13T17:51:14;19.50;99.90
25640;DHT22;13497;48.322;16.204;2022-09-13T17:53:43;19.40;99.90
25640;DHT22;13497;48.322;16.204;2022-09-13T17:56:10;19.50;99.90
25640;DHT22;13497;48.322;16.204;2022-09-13T17:58:36;19.50;99.90
25640;DHT22;13497;48.322;16.204;2022-09-13T18:01:07;19.60;99.90
25640;DHT22;13497;48.322;16.204;2022-09-13T18:03:34;19.80;99.90
25640;DHT22;13497;48.322;16.204;2022-09-13T18:06:01;19.90;99.90
25640;DHT22;13497;48.322;16.204;2022-09-13T18:08:29;20.10;99.90
25640;DHT22;13497;48.322;16.204;2022-09-13T18:11:01;20.10;99.90
25640;DHT22;13497;48.322;16.204;2022-09-13T18:13:28;20.10;99.90
25640;DHT22;13497;48.322;16.204;2022-09-13T18:16:01;20.10;99.90
25640;DHT22;13497;48.322;16.204;2022-09-13T18:18:27;20.00;99.90
25640;DHT22;13497;48.322;16.204;2022-09-13T18:20:53;20.10;99.90
25640;DHT22;13497;48.322;16.204;2022-09-13T18:23:19;20.00;99.90
25640;DHT22;13497;48.322;16.204;2022-09-13T18:25:55;19.90;99.90
25640;DHT22;13497;48.322;16.204;2022-09-13T18:28:21;19.80;99.90
25640;DHT22;13497;48.322;16.204;2022-09-13T18:30:54;19.70;99.90
25640;DHT22;13497;48.322;16.204;2022-09-13T18:33:21;19.70;99.90
25640;DHT22;13497;48.322;16.204;2022-09-13T18:35:58;19.70;99.90
25640;DHT22;13497;48.322;16.204;2022-09-13T18:38:25;19.70;99.90
25640;DHT22;13497;48.322;16.204;2022-09-13T18:41:04;19.80;99.90
25640;DHT22;13497;48.322;16.204;2022-09-13T18:43:31;19.70;99.90